sensor_id;sensor_type;location;lat;lon;timestamp;temperature;humidity
27896;DHT22;15241;48.374;10.876;2023-12-07T00:00:10;2.40;99.90
27896;DHT22;15241;48.374;10.876;2023-12-07T00:05:09;2.30;99.90
27896;DHT22;15241;48.374;10.876;2023-12-07T00:10:09;2.30;99.90
27896;DHT22;15241;48.374;10.876;2023-12-07T00:15:09;2.30;99.90
27896;DHT22;15241;48.374;10.876;2023-12-07T00:20:09;2.20;99.90
27896;DHT22;15241;48.374;10.876;2023-12-07T00:25:09;2.20;99.90
27896;DHT22;15241;48.374;10.876;2023-12-07T00:30:09;2.10;99.90
27896;DHT22;15241;48.374;10.876;2023-12-07T00:35:09;2.10;99.90
27896;DHT22;15241;48.374;10.876;2023-12-07T00:40:09;2.10;99.90
27896;DHT22;15241;48.374;10.876;2023-12-07T00:45:09;2.20;99.90
27896;DHT22;15241;48.374;10.876;2023-12-07T00:55:19;2.30;99.90
27896;DHT22;15241;48.374;10.876;2023-12-07T01:00:18;2.20;99.90
27896;DHT22;15241;48.374;10.876;2023-12-07T01:05:16;2.30;99.90
27896;DHT22;15241;48.374;10.876;2023-12-07T01:10:15;2.40;99.90
27896;DHT22;15241;48.374;10.876;2023-12-07T01:15:13;2.40;99.90
27896;DHT22;15241;48.374;10.876;2023-12-07T01:20:13;2.50;99.90
27896;DHT22;15241;48.374;10.876;2023-12-07T01:25:11;2.50;99.90
27896;DHT22;15241;48.374;10.876;2023-12-07T01:30:11;2.50;99.90
27896;DHT22;15241;48.374;10.876;2023-12-07T01:35:10;2.60;99.90
27896;DHT22;15241;48.374;10.876;2023-12-07T01:40:10;2.60;99.90
27896;DHT22;15241;48.374;10.876;2023-12-07T01:45:08;2.50;99.90
27896;DHT22;15241;48.374;10.876;2023-12-07T01:50:09;2.60;99.90
27896;DHT22;15241;48.374;10.876;2023-12-07T01:55:10;2.70;99.90
27896;DHT22;15241;48.374;10.876;2023-12-07T02:00:11;2.60;99.90
27896;DHT22;15241;48.374;10.876;2023-12-07T02:05:09;2.70;99.90
27896;DHT22;15241;48.374;10.876;2023-12-07T02:10:09;2.60;99.90
27896;DHT22;15241;48.374;10.876;2023-12-07T02:15:09;2.60;99.90
27896;DHT22;15241;48.374;10.876;2023-12-07T02:20:10;2.60;99.90
27896;DHT22;15241;48.374;10.876;2023-12-07T02:25:10;2.70;99.90
27896;DHT22;15241;48.374;10.876;2023-12-07T02:30:11;2.60;99.90
27896;DHT22;15241;48.374;10.876;2023-12-07T02:35:11;2.70;99.90
27896;DHT22;15241;48.374;10.876;2023-12-07T02:40:11;2.70;99.90
27896;DHT22;15241;48.374;10.876;2023-12-07T02:45:11;2.60;99.90
27896;DHT22;15241;48.374;10.876;2023-12-07T02:50:10;2.60;99.90
27896;DHT22;15241;48.374;10.876;2023-12-07T02:55:09;2.60;99.90
27896;DHT22;15241;48.374;10.876;2023-12-07T03:00:10;2.60;99.90
27896;DHT22;15241;48.374;10.876;2023-12-07T03:05:09;2.60;99.90
27896;DHT22;15241;48.374;10.876;2023-12-07T03:10:09;2.70;99.90
27896;DHT22;15241;48.374;10.876;2023-12-07T03:15:08;2.70;99.90
27896;DHT22;15241;48.374;10.876;2023-12-07T03:20:09;2.60;99.90
27896;DHT22;15241;48.374;10.876;2023-12-07T03:25:08;2.60;99.90
27896;DHT22;15241;48.374;10.876;2023-12-07T03:30:11;2.60;99.90
27896;DHT22;15241;48.374;10.876;2023-12-07T03:35:09;2.50;99.90
27896;DHT22;15241;48.374;10.876;2023-12-07T03:40:10;2.50;99.90
27896;DHT22;15241;48.374;10.876;2023-12-07T03:45:09;2.50;99.90
27896;DHT22;15241;48.374;10.876;2023-12-07T03:50:09;2.40;99.90
27896;DHT22;15241;48.374;10.876;2023-12-07T03:55:08;2.30;99.90
27896;DHT22;15241;48.374;10.876;2023-12-07T04:00:10;2.30;99.90
27896;DHT22;15241;48.374;10.876;2023-12-07T04:05:09;2.10;99.90
27896;DHT22;15241;48.374;10.876;2023-12-07T04:10:09;2.10;99.90
27896;DHT22;15241;48.374;10.876;2023-12-07T04:15:10;2.00;99.90
27896;DHT22;15241;48.374;10.876;2023-12-07T04:20:10;2.00;99.90
27896;DHT22;15241;48.374;10.876;2023-12-07T04:25:09;1.80;99.90
27896;DHT22;15241;48.374;10.876;2023-12-07T04:30:10;1.70;99.90
27896;DHT22;15241;48.374;10.876;2023-12-07T04:35:09;1.70;99.90
27896;DHT22;15241;48.374;10.876;2023-12-07T04:40:10;1.70;99.90
27896;DHT22;15241;48.374;10.876;2023-12-07T04:45:10;1.60;99.90
27896;DHT22;15241;48.374;10.876;2023-12-07T04:50:09;1.50;99.90
27896;DHT22;15241;48.374;10.876;2023-12-07T04:55:09;1.50;99.90
27896;DHT22;15241;48.374;10.876;2023-12-07T05:00:10;1.40;99.90
27896;DHT22;15241;48.374;10.876;2023-12-07T05:05:09;1.20;99.90
27896;DHT22;15241;48.374;10.876;2023-12-07T05:10:09;1.20;99.90
27896;DHT22;15241;48.374;10.876;2023-12-07T05:15:09;1.10;99.90
27896;DHT22;15241;48.374;10.876;2023-12-07T05:20:09;0.80;99.90
27896;DHT22;15241;48.374;10.876;2023-12-07T05:25:08;0.80;99.90
27896;DHT22;15241;48.374;10.876;2023-12-07T05:30:09;0.60;99.90
27896;DHT22;15241;48.374;10.876;2023-12-07T05:35:09;0.70;99.90
27896;DHT22;15241;48.374;10.876;2023-12-07T05:40:09;0.60;99.90
27896;DHT22;15241;48.374;10.876;2023-12-07T05:45:09;0.60;99.90
27896;DHT22;15241;48.374;10.876;2023-12-07T05:50:09;0.50;99.90
27896;DHT22;15241;48.374;10.876;2023-12-07T05:55:09;0.50;99.90
27896;DHT22;15241;48.374;10.876;2023-12-07T06:00:09;0.60;99.90
27896;DHT22;15241;48.374;10.876;2023-12-07T06:05:09;0.50;99.90
27896;DHT22;15241;48.374;10.876;2023-12-07T06:10:09;0.60;99.90
27896;DHT22;15241;48.374;10.876;2023-12-07T06:15:09;0.60;99.90
27896;DHT22;15241;48.374;10.876;2023-12-07T06:20:10;0.60;99.90
27896;DHT22;15241;48.374;10.876;2023-12-07T06:25:09;0.50;99.90
27896;DHT22;15241;48.374;10.876;2023-12-07T06:30:09;0.40;99.90
27896;DHT22;15241;48.374;10.876;2023-12-07T06:35:10;0.50;99.90
27896;DHT22;15241;48.374;10.876;2023-12-07T06:40:11;0.60;99.90
27896;DHT22;15241;48.374;10.876;2023-12-07T06:45:10;0.40;99.90
27896;DHT22;15241;48.374;10.876;2023-12-07T06:50:09;0.50;99.90
27896;DHT22;15241;48.374;10.876;2023-12-07T06:55:09;0.60;99.90
27896;DHT22;15241;48.374;10.876;2023-12-07T07:00:09;0.60;99.90
27896;DHT22;15241;48.374;10.876;2023-12-07T07:05:09;0.70;99.90
27896;DHT22;15241;48.374;10.876;2023-12-07T07:10:09;0.80;99.90
27896;DHT22;15241;48.374;10.876;2023-12-07T07:15:09;0.80;99.90
27896;DHT22;15241;48.374;10.876;2023-12-07T07:20:10;0.70;99.90
27896;DHT22;15241;48.374;10.876;2023-12-07T07:25:09;0.70;99.90
27896;DHT22;15241;48.374;10.876;2023-12-07T07:30:10;0.80;99.90
27896;DHT22;15241;48.374;10.876;2023-12-07T07:35:09;0.90;99.90
27896;DHT22;15241;48.374;10.876;2023-12-07T07:40:10;0.80;99.90
27896;DHT22;15241;48.374;10.876;2023-12-07T07:45:10;0.80;99.90
27896;DHT22;15241;48.374;10.876;2023-12-07T07:50:10;0.70;99.90
27896;DHT22;15241;48.374;10.876;2023-12-07T07:55:09;0.90;99.90
27896;DHT22;15241;48.374;10.876;2023-12-07T08:00:11;1.00;99.90
27896;DHT22;15241;48.374;10.876;2023-12-07T08:05:09;1.00;99.90
27896;DHT22;15241;48.374;10.876;2023-12-07T08:10:09;1.10;99.90
27896;DHT22;15241;48.374;10.876;2023-12-07T08:15:09;1.10;99.90
27896;DHT22;15241;48.374;10.876;2023-12-07T08:20:09;1.20;99.90
27896;DHT22;15241;48.374;10.876;2023-12-07T08:25:09;1.30;99.90
27896;DHT22;15241;48.374;10.876;2023-12-07T08:30:09;1.30;99.90
27896;DHT22;15241;48.374;10.876;2023-12-07T08:35:08;1.30;99.90
27896;DHT22;15241;48.374;10.876;2023-12-07T08:40:10;1.30;99.90
27896;DHT22;15241;48.374;10.876;2023-12-07T08:45:09;1.40;99.90
27896;DHT22;15241;48.374;10.876;2023-12-07T08:50:09;1.50;99.90
27896;DHT22;15241;48.374;10.876;2023-12-07T08:55:08;1.50;99.90
27896;DHT22;15241;48.374;10.876;2023-12-07T09:00:08;1.40;99.90
27896;DHT22;15241;48.374;10.876;2023-12-07T09:05:08;1.50;99.90
27896;DHT22;15241;48.374;10.876;2023-12-07T09:10:09;1.60;99.90
27896;DHT22;15241;48.374;10.876;2023-12-07T09:15:09;1.60;99.90
27896;DHT22;15241;48.374;10.876;2023-12-07T09:20:10;1.60;99.90
27896;DHT22;15241;48.374;10.876;2023-12-07T09:25:09;1.70;99.90
27896;DHT22;15241;48.374;10.876;2023-12-07T09:30:10;1.80;99.90
27896;DHT22;15241;48.374;10.876;2023-12-07T09:35:10;1.80;99.90
27896;DHT22;15241;48.374;10.876;2023-12-07T09:40:12;2.00;99.90
27896;DHT22;15241;48.374;10.876;2023-12-07T09:45:11;2.10;99.90
27896;DHT22;15241;48.374;10.876;2023-12-07T09:50:10;2.10;99.90
27896;DHT22;15241;48.374;10.876;2023-12-07T09:55:09;2.10;99.90
27896;DHT22;15241;48.374;10.876;2023-12-07T10:00:09;2.30;99.90
27896;DHT22;15241;48.374;10.876;2023-12-07T10:05:10;2.50;99.90
27896;DHT22;15241;48.374;10.876;2023-12-07T10:10:09;2.60;99.90
27896;DHT22;15241;48.374;10.876;2023-12-07T10:20:20;3.00;99.90
27896;DHT22;15241;48.374;10.876;2023-12-07T10:25:21;3.30;99.90
27896;DHT22;15241;48.374;10.876;2023-12-07T10:30:20;3.70;99.90
27896;DHT22;15241;48.374;10.876;2023-12-07T10:35:20;4.50;99.90
27896;DHT22;15241;48.374;10.876;2023-12-07T10:40:18;10.80;99.90
27896;DHT22;15241;48.374;10.876;2023-12-07T10:45:17;16.40;99.90
27896;DHT22;15241;48.374;10.876;2023-12-07T10:55:28;22.90;73.00
27896;DHT22;15241;48.374;10.876;2023-12-07T11:00:26;26.70;55.70
27896;DHT22;15241;48.374;10.876;2023-12-07T11:05:25;27.70;48.20
27896;DHT22;15241;48.374;10.876;2023-12-07T11:15:33;32.60;35.90
27896;DHT22;15241;48.374;10.876;2023-12-07T11:20:39;34.20;33.90
27896;DHT22;15241;48.374;10.876;2023-12-07T11:25:38;36.40;30.70
27896;DHT22;15241;48.374;10.876;2023-12-07T11:30:37;37.90;28.60
27896;DHT22;15241;48.374;10.876;2023-12-07T11:35:37;36.90;27.10
27896;DHT22;15241;48.374;10.876;2023-12-07T11:40:36;38.10;26.60
27896;DHT22;15241;48.374;10.876;2023-12-07T11:45:42;38.80;25.40
27896;DHT22;15241;48.374;10.876;2023-12-07T11:56:08;40.70;23.50
27896;DHT22;15241;48.374;10.876;2023-12-07T12:01:07;41.60;22.90
27896;DHT22;15241;48.374;10.876;2023-12-07T12:06:05;40.60;22.30
27896;DHT22;15241;48.374;10.876;2023-12-07T12:11:05;41.00;22.50
27896;DHT22;15241;48.374;10.876;2023-12-07T12:16:06;41.60;22.50
27896;DHT22;15241;48.374;10.876;2023-12-07T12:21:07;41.30;21.70
27896;DHT22;15241;48.374;10.876;2023-12-07T12:26:06;40.20;22.20
27896;DHT22;15241;48.374;10.876;2023-12-07T12:31:05;41.60;21.70
27896;DHT22;15241;48.374;10.876;2023-12-07T12:36:06;42.10;20.80
27896;DHT22;15241;48.374;10.876;2023-12-07T12:41:05;42.70;20.10
27896;DHT22;15241;48.374;10.876;2023-12-07T12:46:04;42.00;19.70
27896;DHT22;15241;48.374;10.876;2023-12-07T12:51:10;42.10;20.10
27896;DHT22;15241;48.374;10.876;2023-12-07T12:56:09;42.20;19.60
27896;DHT22;15241;48.374;10.876;2023-12-07T13:01:08;42.30;19.30
27896;DHT22;15241;48.374;10.876;2023-12-07T13:06:07;42.00;19.10
27896;DHT22;15241;48.374;10.876;2023-12-07T13:11:05;42.70;19.10
27896;DHT22;15241;48.374;10.876;2023-12-07T13:16:05;41.90;19.20
27896;DHT22;15241;48.374;10.876;2023-12-07T13:21:04;41.40;19.10
27896;DHT22;15241;48.374;10.876;2023-12-07T13:26:03;41.90;19.20
27896;DHT22;15241;48.374;10.876;2023-12-07T13:31:01;41.70;19.60
27896;DHT22;15241;48.374;10.876;2023-12-07T13:36:00;40.50;19.30
27896;DHT22;15241;48.374;10.876;2023-12-07T13:40:58;41.00;18.90
27896;DHT22;15241;48.374;10.876;2023-12-07T13:45:57;41.10;19.30
27896;DHT22;15241;48.374;10.876;2023-12-07T13:50:54;40.30;19.00
27896;DHT22;15241;48.374;10.876;2023-12-07T13:55:52;39.60;19.50
27896;DHT22;15241;48.374;10.876;2023-12-07T14:00:50;39.20;19.50
27896;DHT22;15241;48.374;10.876;2023-12-07T14:05:49;38.50;20.20
27896;DHT22;15241;48.374;10.876;2023-12-07T14:10:47;36.00;20.20
27896;DHT22;15241;48.374;10.876;2023-12-07T14:15:46;35.20;21.90
27896;DHT22;15241;48.374;10.876;2023-12-07T14:20:44;33.90;22.50
27896;DHT22;15241;48.374;10.876;2023-12-07T14:25:44;30.80;23.80
27896;DHT22;15241;48.374;10.876;2023-12-07T14:30:43;28.50;25.40
27896;DHT22;15241;48.374;10.876;2023-12-07T14:35:41;25.90;27.00
27896;DHT22;15241;48.374;10.876;2023-12-07T14:40:40;23.50;29.50
27896;DHT22;15241;48.374;10.876;2023-12-07T14:45:38;21.10;32.90
27896;DHT22;15241;48.374;10.876;2023-12-07T14:50:36;18.90;35.90
27896;DHT22;15241;48.374;10.876;2023-12-07T14:55:35;17.30;38.90
27896;DHT22;15241;48.374;10.876;2023-12-07T15:00:33;15.70;41.50
27896;DHT22;15241;48.374;10.876;2023-12-07T15:05:32;14.30;43.80
27896;DHT22;15241;48.374;10.876;2023-12-07T15:10:30;13.10;46.40
27896;DHT22;15241;48.374;10.876;2023-12-07T15:15:28;12.10;49.00
27896;DHT22;15241;48.374;10.876;2023-12-07T15:20:27;11.20;51.00
27896;DHT22;15241;48.374;10.876;2023-12-07T15:25:25;10.30;53.70
27896;DHT22;15241;48.374;10.876;2023-12-07T15:30:24;9.50;55.90
27896;DHT22;15241;48.374;10.876;2023-12-07T15:35:22;8.80;57.80
27896;DHT22;15241;48.374;10.876;2023-12-07T15:40:20;8.10;60.50
27896;DHT22;15241;48.374;10.876;2023-12-07T15:45:19;7.50;62.50
27896;DHT22;15241;48.374;10.876;2023-12-07T15:50:17;7.00;65.90
27896;DHT22;15241;48.374;10.876;2023-12-07T15:55:16;6.40;68.40
27896;DHT22;15241;48.374;10.876;2023-12-07T16:00:16;6.00;71.00
27896;DHT22;15241;48.374;10.876;2023-12-07T16:05:15;5.80;74.60
27896;DHT22;15241;48.374;10.876;2023-12-07T16:10:13;5.40;80.10
27896;DHT22;15241;48.374;10.876;2023-12-07T16:15:12;5.20;83.10
27896;DHT22;15241;48.374;10.876;2023-12-07T16:20:11;4.90;87.10
27896;DHT22;15241;48.374;10.876;2023-12-07T16:25:10;4.70;90.60
27896;DHT22;15241;48.374;10.876;2023-12-07T16:30:10;4.40;92.80
27896;DHT22;15241;48.374;10.876;2023-12-07T16:35:09;4.20;94.50
27896;DHT22;15241;48.374;10.876;2023-12-07T16:40:09;4.00;96.40
27896;DHT22;15241;48.374;10.876;2023-12-07T16:45:09;3.80;98.40
27896;DHT22;15241;48.374;10.876;2023-12-07T16:50:09;3.60;99.90
27896;DHT22;15241;48.374;10.876;2023-12-07T16:55:08;3.50;99.90
27896;DHT22;15241;48.374;10.876;2023-12-07T17:00:09;3.20;99.90
27896;DHT22;15241;48.374;10.876;2023-12-07T17:05:08;3.10;99.90
27896;DHT22;15241;48.374;10.876;2023-12-07T17:10:08;3.00;99.90
27896;DHT22;15241;48.374;10.876;2023-12-07T17:15:09;2.90;99.90
27896;DHT22;15241;48.374;10.876;2023-12-07T17:20:09;2.70;99.90
27896;DHT22;15241;48.374;10.876;2023-12-07T17:25:08;2.60;99.90
27896;DHT22;15241;48.374;10.876;2023-12-07T17:30:09;2.50;99.90
27896;DHT22;15241;48.374;10.876;2023-12-07T17:35:08;2.40;99.90
27896;DHT22;15241;48.374;10.876;2023-12-07T17:40:09;2.30;99.90
27896;DHT22;15241;48.374;10.876;2023-12-07T17:45:08;2.20;99.90
27896;DHT22;15241;48.374;10.876;2023-12-07T17:50:08;2.10;99.90
27896;DHT22;15241;48.374;10.876;2023-12-07T17:55:09;2.10;99.90
27896;DHT22;15241;48.374;10.876;2023-12-07T18:00:10;2.00;99.90
27896;DHT22;15241;48.374;10.876;2023-12-07T18:05:09;2.00;99.90
27896;DHT22;15241;48.374;10.876;2023-12-07T18:10:09;1.90;99.90
27896;DHT22;15241;48.374;10.876;2023-12-07T18:15:10;1.90;99.90
27896;DHT22;15241;48.374;10.876;2023-12-07T18:20:10;1.80;99.90
27896;DHT22;15241;48.374;10.876;2023-12-07T18:25:09;1.80;99.90
27896;DHT22;15241;48.374;10.876;2023-12-07T18:30:10;1.70;99.90
27896;DHT22;15241;48.374;10.876;2023-12-07T18:35:08;1.70;99.90
27896;DHT22;15241;48.374;10.876;2023-12-07T18:40:09;1.60;99.90
27896;DHT22;15241;48.374;10.876;2023-12-07T18:45:09;1.50;99.90
27896;DHT22;15241;48.374;10.876;2023-12-07T18:50:09;1.50;99.90
27896;DHT22;15241;48.374;10.876;2023-12-07T18:55:09;1.40;99.90
27896;DHT22;15241;48.374;10.876;2023-12-07T19:00:10;1.50;99.90
27896;DHT22;15241;48.374;10.876;2023-12-07T19:05:10;1.40;99.90
27896;DHT22;15241;48.374;10.876;2023-12-07T19:10:11;1.40;99.90
27896;DHT22;15241;48.374;10.876;2023-12-07T19:15:10;1.40;99.90
27896;DHT22;15241;48.374;10.876;2023-12-07T19:20:11;1.40;99.90
27896;DHT22;15241;48.374;10.876;2023-12-07T19:25:09;1.40;99.90
27896;DHT22;15241;48.374;10.876;2023-12-07T19:30:10;1.20;99.90
27896;DHT22;15241;48.374;10.876;2023-12-07T19:35:09;1.20;99.90
27896;DHT22;15241;48.374;10.876;2023-12-07T19:40:10;1.20;99.90
27896;DHT22;15241;48.374;10.876;2023-12-07T19:45:10;1.20;99.90
27896;DHT22;15241;48.374;10.876;2023-12-07T19:50:10;1.20;99.90
27896;DHT22;15241;48.374;10.876;2023-12-07T19:55:09;1.20;99.90
27896;DHT22;15241;48.374;10.876;2023-12-07T20:00:10;1.10;99.90
27896;DHT22;15241;48.374;10.876;2023-12-07T20:05:09;1.10;99.90
27896;DHT22;15241;48.374;10.876;2023-12-07T20:10:09;1.10;99.90
27896;DHT22;15241;48.374;10.876;2023-12-07T20:15:09;1.00;99.90
27896;DHT22;15241;48.374;10.876;2023-12-07T20:20:09;1.00;99.90
27896;DHT22;15241;48.374;10.876;2023-12-07T20:30:17;1.00;99.90
27896;DHT22;15241;48.374;10.876;2023-12-07T20:35:15;1.00;99.90
27896;DHT22;15241;48.374;10.876;2023-12-07T20:40:14;1.00;99.90
27896;DHT22;15241;48.374;10.876;2023-12-07T20:45:12;1.00;99.90
27896;DHT22;15241;48.374;10.876;2023-12-07T20:50:11;1.00;99.90
27896;DHT22;15241;48.374;10.876;2023-12-07T20:55:10;1.00;99.90
27896;DHT22;15241;48.374;10.876;2023-12-07T21:00:10;0.90;99.90
27896;DHT22;15241;48.374;10.876;2023-12-07T21:05:09;0.80;99.90
27896;DHT22;15241;48.374;10.876;2023-12-07T21:10:08;0.80;99.90
27896;DHT22;15241;48.374;10.876;2023-12-07T21:15:08;0.80;99.90
27896;DHT22;15241;48.374;10.876;2023-12-07T21:20:09;0.80;99.90
27896;DHT22;15241;48.374;10.876;2023-12-07T21:25:08;0.80;99.90
27896;DHT22;15241;48.374;10.876;2023-12-07T21:30:08;0.80;99.90
27896;DHT22;15241;48.374;10.876;2023-12-07T21:35:09;0.70;99.90
27896;DHT22;15241;48.374;10.876;2023-12-07T21:40:12;0.70;99.90
27896;DHT22;15241;48.374;10.876;2023-12-07T21:45:10;0.60;99.90
27896;DHT22;15241;48.374;10.876;2023-12-07T21:50:09;0.50;99.90
27896;DHT22;15241;48.374;10.876;2023-12-07T21:55:09;0.50;99.90
27896;DHT22;15241;48.374;10.876;2023-12-07T22:00:10;0.50;99.90
27896;DHT22;15241;48.374;10.876;2023-12-07T22:05:09;0.50;99.90
27896;DHT22;15241;48.374;10.876;2023-12-07T22:10:08;0.40;99.90
27896;DHT22;15241;48.374;10.876;2023-12-07T22:15:08;0.40;99.90
27896;DHT22;15241;48.374;10.876;2023-12-07T22:20:09;0.40;99.90
27896;DHT22;15241;48.374;10.876;2023-12-07T22:25:08;0.40;99.90
27896;DHT22;15241;48.374;10.876;2023-12-07T22:30:09;0.40;99.90
27896;DHT22;15241;48.374;10.876;2023-12-07T22:35:08;0.30;99.90
27896;DHT22;15241;48.374;10.876;2023-12-07T22:40:09;0.30;99.90
27896;DHT22;15241;48.374;10.876;2023-12-07T22:45:09;0.30;99.90
27896;DHT22;15241;48.374;10.876;2023-12-07T22:50:09;0.30;99.90
27896;DHT22;15241;48.374;10.876;2023-12-07T22:55:08;0.30;99.90
27896;DHT22;15241;48.374;10.876;2023-12-07T23:00:09;0.30;99.90
27896;DHT22;15241;48.374;10.876;2023-12-07T23:05:08;0.30;99.90
27896;DHT22;15241;48.374;10.876;2023-12-07T23:10:09;0.30;99.90
27896;DHT22;15241;48.374;10.876;2023-12-07T23:15:09;0.30;99.90
27896;DHT22;15241;48.374;10.876;2023-12-07T23:20:09;0.30;99.90
27896;DHT22;15241;48.374;10.876;2023-12-07T23:25:08;0.30;99.90
27896;DHT22;15241;48.374;10.876;2023-12-07T23:30:09;0.30;99.90
27896;DHT22;15241;48.374;10.876;2023-12-07T23:35:08;0.30;99.90
27896;DHT22;15241;48.374;10.876;2023-12-07T23:40:10;0.30;99.90
27896;DHT22;15241;48.374;10.876;2023-12-07T23:45:11;0.30;99.90
27896;DHT22;15241;48.374;10.876;2023-12-07T23:50:10;0.30;99.90
27896;DHT22;15241;48.374;10.876;2023-12-07T23:55:10;0.30;99.90
